createdAt,value
2024-04-30T00:02:04.068Z,66.73
2024-04-30T00:04:35.205Z,66.71
2024-04-30T00:07:07.147Z,66.75
2024-04-30T00:09:41.727Z,66.88
2024-04-30T00:12:12.946Z,66.81
2024-04-30T00:14:44.095Z,66.82
2024-04-30T00:17:15.193Z,66.84
2024-04-30T00:19:46.514Z,66.84
2024-04-30T00:22:17.685Z,66.83
2024-04-30T00:24:48.722Z,66.79
2024-04-30T00:27:19.684Z,66.96
2024-04-30T00:29:50.946Z,66.94
2024-04-30T00:32:22.160Z,66.92
2024-04-30T00:34:55.914Z,67.06
2024-04-30T00:37:27.337Z,66.98
2024-04-30T00:39:58.455Z,66.95
2024-04-30T00:42:30.190Z,67.07
2024-04-30T00:45:01.670Z,67.14
2024-04-30T00:47:34.091Z,67.05
2024-04-30T00:50:06.524Z,67.03
2024-04-30T00:52:37.901Z,66.90
2024-04-30T00:55:09.536Z,67.07
2024-04-30T00:57:41.180Z,66.97
2024-04-30T01:00:14.524Z,67.02
2024-04-30T01:02:46.459Z,66.98
2024-04-30T01:05:17.955Z,66.97
2024-04-30T01:07:49.382Z,66.87
2024-04-30T01:10:20.830Z,66.64
2024-04-30T01:12:53.277Z,66.68
2024-04-30T01:15:24.307Z,66.58
2024-04-30T01:17:56.007Z,66.52
2024-04-30T01:20:27.817Z,66.50
2024-04-30T01:22:59.500Z,66.39
2024-04-30T01:25:30.756Z,66.38
2024-04-30T01:28:02.009Z,66.39
2024-04-30T01:30:33.270Z,66.46
2024-04-30T01:33:05.044Z,66.42
2024-04-30T01:35:36.109Z,66.49
2024-04-30T01:38:08.060Z,66.45
2024-04-30T01:40:39.186Z,66.27
2024-04-30T01:43:10.738Z,66.67
2024-04-30T01:45:41.815Z,66.62
2024-04-30T01:48:12.904Z,66.62
2024-04-30T01:50:44.084Z,66.75
2024-04-30T01:53:15.793Z,67.14
2024-04-30T01:55:46.902Z,67.13
2024-04-30T01:58:18.154Z,67.32
2024-04-30T02:00:49.097Z,67.30
2024-04-30T02:03:20.162Z,67.32
2024-04-30T02:05:51.388Z,67.51
2024-04-30T02:08:22.229Z,67.46
2024-04-30T02:10:53.267Z,67.56
2024-04-30T02:13:24.692Z,67.58
2024-04-30T02:15:55.980Z,67.92
2024-04-30T02:18:27.197Z,67.95
2024-04-30T02:20:58.315Z,67.87
2024-04-30T02:23:29.640Z,68.04
2024-04-30T02:26:02.664Z,68.18
2024-04-30T02:28:34.082Z,68.20
2024-04-30T02:31:19.495Z,68.28
2024-04-30T02:34:04.987Z,68.32
2024-04-30T02:36:36.563Z,68.37
2024-04-30T02:39:10.201Z,68.50
2024-04-30T02:41:41.242Z,68.52
2024-04-30T02:44:13.016Z,68.59
2024-04-30T02:46:44.624Z,68.66
2024-04-30T02:49:16.478Z,68.64
2024-04-30T02:51:48.172Z,68.71
2024-04-30T02:54:19.190Z,68.68
2024-04-30T02:56:50.417Z,68.70
2024-04-30T02:59:21.741Z,68.70
2024-04-30T03:01:52.994Z,68.72
2024-04-30T03:04:24.235Z,68.78
2024-04-30T03:06:55.363Z,68.98
2024-04-30T03:09:26.452Z,69.08
2024-04-30T03:11:57.668Z,68.95
2024-04-30T03:14:29.017Z,68.92
2024-04-30T03:17:00.237Z,69.12
2024-04-30T03:19:31.714Z,68.90
2024-04-30T03:22:03.148Z,69.12
2024-04-30T03:24:34.279Z,69.04
2024-04-30T03:27:06.027Z,69.11
2024-04-30T03:29:37.220Z,69.08
2024-04-30T03:32:08.979Z,69.17
2024-04-30T03:34:40.743Z,69.10
2024-04-30T03:37:11.951Z,69.21
2024-04-30T03:39:43.160Z,69.03
2024-04-30T03:42:14.343Z,69.22
2024-04-30T03:44:45.496Z,68.98
2024-04-30T03:47:16.790Z,69.18
2024-04-30T03:49:48.140Z,69.26
2024-04-30T03:52:20.074Z,69.02
2024-04-30T03:54:51.195Z,69.22
2024-04-30T03:57:22.500Z,69.36
2024-04-30T03:59:54.020Z,69.43
2024-04-30T04:02:25.235Z,69.68
2024-04-30T04:04:56.431Z,69.66
2024-04-30T04:07:27.836Z,69.86
2024-04-30T04:09:59.195Z,69.53
2024-04-30T04:12:44.584Z,69.91
2024-04-30T04:15:15.978Z,69.78
2024-04-30T04:17:46.989Z,69.82
2024-04-30T04:20:18.303Z,69.98
2024-04-30T04:22:49.315Z,70.13
2024-04-30T04:25:20.430Z,70.12
2024-04-30T04:27:51.573Z,70.11
2024-04-30T04:30:22.643Z,70.16
2024-04-30T04:32:53.837Z,70.16
2024-04-30T04:35:24.892Z,70.01
2024-04-30T04:37:55.931Z,70.17
2024-04-30T04:40:27.235Z,70.12
2024-04-30T04:42:58.408Z,70.23
2024-04-30T04:45:29.621Z,70.13
2024-04-30T04:48:01.134Z,70.13
2024-04-30T04:50:32.415Z,70.07
2024-04-30T04:53:03.613Z,70.25
2024-04-30T04:55:35.397Z,70.11
2024-04-30T04:58:07.154Z,70.08
2024-04-30T05:00:38.454Z,69.92
2024-04-30T05:03:09.762Z,69.94
2024-04-30T05:05:41.007Z,69.88
2024-04-30T05:08:12.074Z,69.83
2024-04-30T05:10:43.291Z,69.94
2024-04-30T05:13:14.584Z,70.02
2024-04-30T05:15:45.654Z,69.89
2024-04-30T05:18:16.930Z,69.97
2024-04-30T05:20:48.234Z,70.02
2024-04-30T05:23:19.179Z,70.12
2024-04-30T05:25:50.327Z,70.16
2024-04-30T05:28:21.416Z,70.13
2024-04-30T05:30:53.215Z,70.12
2024-04-30T05:33:24.541Z,70.44
2024-04-30T05:35:55.923Z,70.41
2024-04-30T05:38:26.934Z,70.34
2024-04-30T05:40:58.016Z,70.43
2024-04-30T05:43:29.079Z,70.39
2024-04-30T05:46:00.384Z,70.34
2024-04-30T05:48:31.621Z,70.34
2024-04-30T05:51:02.853Z,70.27
2024-04-30T05:53:36.700Z,70.23
2024-04-30T05:56:09.373Z,70.02
2024-04-30T05:58:40.956Z,70.11
2024-04-30T06:01:14.255Z,70.24
2024-04-30T06:03:45.477Z,70.32
2024-04-30T06:06:17.020Z,70.41
2024-04-30T06:08:48.237Z,70.23
2024-04-30T06:11:19.519Z,70.47
2024-04-30T06:13:50.728Z,70.74
2024-04-30T06:16:22.147Z,70.69
2024-04-30T06:18:53.241Z,70.40
2024-04-30T06:21:31.151Z,70.44
2024-04-30T06:24:08.214Z,70.52
2024-04-30T06:26:42.886Z,70.44
2024-04-30T06:29:14.116Z,70.35
2024-04-30T06:31:45.767Z,70.33
2024-04-30T06:34:17.157Z,70.25
2024-04-30T06:36:48.291Z,70.13
2024-04-30T06:39:20.594Z,70.12
2024-04-30T06:41:51.837Z,69.98
2024-04-30T06:44:22.707Z,69.57
2024-04-30T06:46:54.128Z,69.54
2024-04-30T06:49:26.557Z,69.52
2024-04-30T06:51:58.092Z,69.73
2024-04-30T06:54:29.448Z,69.29
2024-04-30T06:57:01.227Z,69.03
2024-04-30T06:59:33.255Z,68.62
2024-04-30T07:02:04.492Z,68.19
2024-04-30T07:04:35.644Z,67.94
2024-04-30T07:07:07.356Z,67.36
2024-04-30T07:09:38.573Z,67.09
2024-04-30T07:12:12.579Z,66.63
2024-04-30T07:14:43.771Z,66.59
2024-04-30T07:17:14.976Z,66.37
2024-04-30T07:19:53.453Z,65.90
2024-04-30T07:22:24.579Z,65.54
2024-04-30T07:24:55.700Z,65.20
2024-04-30T07:27:27.060Z,65.13
2024-04-30T07:29:58.135Z,64.86
2024-04-30T07:32:29.995Z,64.61
2024-04-30T07:35:01.180Z,64.47
2024-04-30T07:37:32.366Z,64.15
2024-04-30T07:40:03.597Z,64.08
2024-04-30T07:42:35.018Z,63.72
2024-04-30T07:45:07.230Z,63.56
2024-04-30T07:47:38.710Z,63.76
2024-04-30T07:50:10.259Z,63.42
2024-04-30T07:52:41.496Z,63.41
2024-04-30T07:55:12.541Z,63.45
2024-04-30T07:57:44.277Z,63.23
2024-04-30T08:00:16.731Z,62.88
2024-04-30T08:02:47.967Z,62.88
2024-04-30T08:05:19.169Z,62.44
2024-04-30T08:07:50.207Z,62.56
2024-04-30T08:10:21.466Z,62.55
2024-04-30T08:12:52.695Z,62.36
2024-04-30T08:15:25.442Z,62.15
2024-04-30T08:17:58.965Z,61.81
2024-04-30T08:20:30.156Z,61.73
2024-04-30T08:23:01.430Z,61.84
2024-04-30T08:25:32.749Z,61.72
2024-04-30T08:28:04.342Z,61.65
2024-04-30T08:30:35.326Z,61.77
2024-04-30T08:33:07.208Z,61.27
2024-04-30T08:35:38.186Z,60.97
2024-04-30T08:38:10.955Z,61.02
2024-04-30T08:40:42.057Z,60.85
2024-04-30T08:43:13.953Z,60.61
2024-04-30T08:45:45.894Z,60.33
2024-04-30T08:48:19.329Z,60.07
2024-04-30T08:50:51.172Z,59.92
2024-04-30T08:53:24.833Z,59.85
2024-04-30T08:55:56.249Z,59.73
2024-04-30T08:58:27.146Z,59.01
2024-04-30T09:00:58.207Z,59.23
2024-04-30T09:03:29.285Z,58.90
2024-04-30T09:06:00.739Z,58.46
2024-04-30T09:08:31.743Z,58.27
2024-04-30T09:11:02.535Z,58.50
2024-04-30T09:13:37.532Z,58.24
2024-04-30T09:16:09.997Z,58.11
2024-04-30T09:18:51.176Z,57.59
2024-04-30T09:21:29.782Z,57.01
2024-04-30T09:24:09.867Z,56.70
2024-04-30T09:26:41.025Z,56.80
2024-04-30T09:29:12.161Z,56.76
2024-04-30T09:31:43.596Z,56.60
2024-04-30T09:34:14.495Z,56.40
2024-04-30T09:36:45.786Z,56.20
2024-04-30T09:39:16.962Z,55.94
2024-04-30T09:41:48.827Z,55.61
2024-04-30T09:44:19.923Z,55.25
2024-04-30T09:46:53.145Z,55.24
2024-04-30T09:49:25.082Z,55.18
2024-04-30T09:51:56.812Z,55.04
2024-04-30T09:54:31.967Z,55.03
2024-04-30T09:57:04.879Z,55.24
2024-04-30T09:59:36.296Z,55.12
2024-04-30T10:02:13.116Z,55.08
2024-04-30T10:04:45.743Z,55.07
2024-04-30T10:07:17.534Z,55.29
2024-04-30T10:09:55.351Z,55.37
2024-04-30T10:12:30.659Z,55.20
2024-04-30T10:15:14.053Z,54.95
2024-04-30T10:17:45.669Z,54.83
2024-04-30T10:20:27.093Z,54.88
2024-04-30T10:22:58.127Z,55.06
2024-04-30T10:25:29.516Z,54.49
2024-04-30T10:28:13.985Z,54.12
2024-04-30T10:30:45.156Z,53.96
2024-04-30T10:33:25.482Z,53.60
2024-04-30T10:35:56.546Z,53.08
2024-04-30T10:38:27.449Z,53.43
2024-04-30T10:41:03.030Z,52.86
2024-04-30T10:43:34.337Z,52.73
2024-04-30T10:46:13.970Z,52.35
2024-04-30T10:48:52.824Z,52.22
2024-04-30T10:51:25.675Z,51.69
2024-04-30T10:54:01.914Z,51.53
2024-04-30T10:56:33.346Z,51.59
2024-04-30T10:59:04.611Z,51.25
2024-04-30T11:01:35.884Z,51.20
2024-04-30T11:04:10.937Z,50.68
2024-04-30T11:06:46.562Z,50.47
2024-04-30T11:09:18.506Z,50.15
2024-04-30T11:11:55.860Z,50.23
2024-04-30T11:14:27.026Z,49.98
2024-04-30T11:16:58.593Z,49.60
2024-04-30T11:19:29.891Z,49.40
2024-04-30T11:22:01.659Z,49.91
2024-04-30T11:24:33.102Z,50.05
2024-04-30T11:27:04.759Z,50.51
2024-04-30T11:29:40.023Z,50.20
2024-04-30T11:32:12.211Z,49.73
2024-04-30T11:34:43.533Z,49.16
2024-04-30T11:37:14.729Z,49.33
2024-04-30T11:39:46.051Z,49.36
2024-04-30T11:42:21.482Z,48.87
2024-04-30T11:44:58.271Z,48.39
2024-04-30T11:47:30.011Z,48.09
2024-04-30T11:50:01.520Z,47.66
2024-04-30T11:52:32.822Z,47.37
2024-04-30T11:55:04.680Z,47.43
2024-04-30T11:57:37.099Z,46.78
2024-04-30T12:00:11.679Z,46.00
2024-04-30T12:02:44.285Z,45.67
2024-04-30T12:05:16.108Z,45.36
2024-04-30T12:07:47.296Z,44.83
2024-04-30T12:10:18.583Z,44.71
2024-04-30T12:12:49.904Z,44.47
2024-04-30T12:15:20.947Z,43.83
2024-04-30T12:17:52.328Z,43.51
2024-04-30T12:20:23.552Z,43.52
2024-04-30T12:22:54.728Z,43.81
2024-04-30T12:25:25.954Z,43.49
2024-04-30T12:27:56.823Z,43.35
2024-04-30T12:30:27.722Z,43.24
2024-04-30T12:32:59.007Z,42.95
2024-04-30T12:35:30.518Z,42.80
2024-04-30T12:38:01.413Z,43.04
2024-04-30T12:40:32.395Z,42.63
2024-04-30T12:43:03.385Z,42.78
2024-04-30T12:45:34.520Z,42.47
2024-04-30T12:48:06.524Z,41.79
2024-04-30T12:50:37.383Z,41.58
2024-04-30T12:53:08.565Z,41.63
2024-04-30T12:55:40.050Z,41.98
2024-04-30T12:58:11.372Z,41.35
2024-04-30T13:00:42.359Z,39.86
2024-04-30T13:03:13.240Z,39.19
2024-04-30T13:05:44.197Z,39.25
2024-04-30T13:08:15.055Z,39.82
2024-04-30T13:10:45.868Z,40.18
2024-04-30T13:13:17.016Z,39.98
2024-04-30T13:15:47.876Z,39.60
2024-04-30T13:18:18.760Z,39.69
2024-04-30T13:20:49.486Z,39.62
2024-04-30T13:23:20.273Z,38.82
2024-04-30T13:25:51.160Z,39.02
2024-04-30T13:28:22.051Z,38.41
2024-04-30T13:30:53.108Z,37.73
2024-04-30T13:33:24.092Z,37.43
2024-04-30T13:35:55.038Z,37.00
2024-04-30T13:38:25.992Z,36.17
2024-04-30T13:40:56.726Z,35.88
2024-04-30T13:43:27.954Z,35.92
2024-04-30T13:45:59.501Z,35.70
2024-04-30T13:48:30.630Z,35.69
2024-04-30T13:51:01.885Z,35.55
2024-04-30T13:53:37.020Z,35.63
2024-04-30T13:56:12.325Z,35.45
2024-04-30T13:58:43.305Z,35.91
2024-04-30T14:01:18.408Z,35.43
2024-04-30T14:03:49.518Z,35.56
2024-04-30T14:06:22.230Z,34.95
2024-04-30T14:08:53.731Z,34.72
2024-04-30T14:11:24.698Z,35.01
2024-04-30T14:13:55.698Z,34.68
2024-04-30T14:16:26.864Z,34.77
2024-04-30T14:18:58.041Z,34.83
2024-04-30T14:21:28.988Z,35.27
2024-04-30T14:24:00.339Z,35.31
2024-04-30T14:26:31.321Z,35.10
2024-04-30T14:29:02.334Z,35.74
2024-04-30T14:31:33.345Z,36.14
2024-04-30T14:34:04.577Z,36.20
2024-04-30T14:36:36.782Z,36.21
2024-04-30T14:39:11.221Z,35.80
2024-04-30T14:41:43.335Z,35.76
2024-04-30T14:44:14.826Z,36.24
2024-04-30T14:46:46.128Z,36.41
2024-04-30T14:49:17.363Z,36.02
2024-04-30T14:51:48.346Z,36.13
2024-04-30T14:54:19.289Z,35.69
2024-04-30T14:56:52.510Z,35.41
2024-04-30T14:59:25.235Z,34.86
2024-04-30T15:01:56.226Z,34.89
2024-04-30T15:04:27.353Z,34.59
2024-04-30T15:06:58.311Z,35.21
2024-04-30T15:09:32.581Z,35.75
2024-04-30T15:12:06.796Z,35.96
2024-04-30T15:14:37.615Z,36.52
2024-04-30T15:17:08.497Z,36.82
2024-04-30T15:19:40.907Z,36.99
2024-04-30T15:22:12.098Z,37.18
2024-04-30T15:24:43.220Z,37.15
2024-04-30T15:27:14.409Z,37.36
2024-04-30T15:29:45.620Z,37.52
2024-04-30T15:32:16.819Z,37.32
2024-04-30T15:34:47.834Z,37.25
2024-04-30T15:37:20.009Z,37.30
2024-04-30T15:39:52.132Z,37.39
2024-04-30T15:42:23.067Z,37.52
2024-04-30T15:44:54.386Z,37.89
2024-04-30T15:47:25.376Z,37.75
2024-04-30T15:49:56.415Z,37.52
2024-04-30T15:52:27.277Z,37.38
2024-04-30T15:54:59.261Z,37.03
2024-04-30T15:57:30.526Z,36.94
2024-04-30T16:00:01.835Z,37.00
2024-04-30T16:02:33.116Z,37.13
2024-04-30T16:05:04.674Z,37.32
2024-04-30T16:07:35.875Z,37.27
2024-04-30T16:10:08.751Z,37.40
2024-04-30T16:12:39.663Z,37.38
2024-04-30T16:15:11.715Z,37.56
2024-04-30T16:17:43.022Z,37.53
2024-04-30T16:20:13.852Z,37.39
2024-04-30T16:22:44.919Z,37.30
2024-04-30T16:25:16.638Z,37.45
2024-04-30T16:27:47.608Z,37.12
2024-04-30T16:30:18.983Z,37.08
2024-04-30T16:32:52.437Z,36.74
2024-04-30T16:35:23.425Z,36.73
2024-04-30T16:37:54.242Z,36.66
2024-04-30T16:40:25.278Z,36.87
2024-04-30T16:42:56.303Z,36.98
2024-04-30T16:45:27.700Z,36.84
2024-04-30T16:47:58.993Z,36.79
2024-04-30T16:50:30.266Z,37.25
2024-04-30T16:53:01.523Z,37.50
2024-04-30T16:55:32.943Z,37.77
2024-04-30T16:58:05.374Z,38.00
2024-04-30T17:00:36.489Z,38.47
2024-04-30T17:03:07.961Z,38.74
2024-04-30T17:05:39.188Z,39.29
2024-04-30T17:08:10.417Z,39.67
2024-04-30T17:10:41.388Z,40.05
2024-04-30T17:13:12.359Z,40.35
2024-04-30T17:15:43.547Z,40.75
2024-04-30T17:18:14.524Z,41.00
2024-04-30T17:20:45.704Z,41.42
2024-04-30T17:23:16.902Z,41.80
2024-04-30T17:25:47.935Z,41.78
2024-04-30T17:28:20.586Z,42.20
2024-04-30T17:30:51.635Z,42.84
2024-04-30T17:33:22.769Z,43.00
2024-04-30T17:35:53.750Z,43.23
2024-04-30T17:38:24.639Z,44.01
2024-04-30T17:40:55.566Z,43.98
2024-04-30T17:43:26.838Z,44.56
2024-04-30T17:45:58.287Z,45.21
2024-04-30T17:48:29.266Z,45.79
2024-04-30T17:51:00.249Z,45.86
2024-04-30T17:53:31.143Z,46.01
2024-04-30T17:56:02.174Z,46.73
2024-04-30T17:58:33.114Z,47.10
2024-04-30T18:01:06.904Z,47.66
2024-04-30T18:03:38.057Z,48.17
2024-04-30T18:06:13.353Z,48.64
2024-04-30T18:08:44.150Z,48.87
2024-04-30T18:11:15.223Z,49.00
2024-04-30T18:13:46.796Z,49.94
2024-04-30T18:16:17.770Z,50.39
2024-04-30T18:18:49.583Z,51.08
2024-04-30T18:21:21.452Z,51.38
2024-04-30T18:23:52.621Z,51.46
2024-04-30T18:26:24.118Z,51.95
2024-04-30T18:28:56.102Z,52.24
2024-04-30T18:31:29.102Z,52.47
2024-04-30T18:34:01.148Z,52.84
2024-04-30T18:36:37.331Z,53.28
2024-04-30T18:39:13.485Z,53.47
2024-04-30T18:41:45.166Z,53.89
2024-04-30T18:44:16.548Z,54.25
2024-04-30T18:46:47.410Z,54.56
2024-04-30T18:49:19.596Z,54.78
2024-04-30T18:51:52.772Z,55.01
2024-04-30T18:54:24.191Z,55.21
2024-04-30T18:56:56.336Z,55.47
2024-04-30T18:59:29.898Z,55.76
2024-04-30T19:02:01.680Z,56.16
2024-04-30T19:04:33.978Z,56.51
2024-04-30T19:07:06.137Z,57.00
2024-04-30T19:09:40.751Z,57.25
2024-04-30T19:12:12.660Z,57.61
2024-04-30T19:14:45.054Z,58.04
2024-04-30T19:17:16.710Z,58.21
2024-04-30T19:19:50.417Z,58.40
2024-04-30T19:22:22.772Z,58.69
2024-04-30T19:24:54.786Z,58.81
2024-04-30T19:27:25.856Z,59.20
2024-04-30T19:29:56.863Z,59.40
2024-04-30T19:32:29.200Z,59.62
2024-04-30T19:35:00.428Z,59.95
2024-04-30T19:37:32.544Z,60.03
2024-04-30T19:40:03.792Z,60.26
2024-04-30T19:42:37.878Z,60.36
2024-04-30T19:45:10.264Z,60.68
2024-04-30T19:47:41.796Z,60.73
2024-04-30T19:50:12.924Z,61.05
2024-04-30T19:52:43.948Z,61.23
2024-04-30T19:55:15.341Z,61.07
2024-04-30T19:57:49.026Z,61.29
2024-04-30T20:00:20.476Z,61.37
2024-04-30T20:02:51.836Z,61.46
2024-04-30T20:05:23.512Z,61.49
2024-04-30T20:07:59.169Z,61.77
2024-04-30T20:10:30.735Z,61.74
2024-04-30T20:13:02.126Z,61.78
2024-04-30T20:15:33.963Z,61.89
2024-04-30T20:18:05.589Z,61.85
2024-04-30T20:20:36.737Z,61.67
2024-04-30T20:23:09.421Z,61.97
2024-04-30T20:25:41.506Z,61.96
2024-04-30T20:28:13.003Z,62.17
2024-04-30T20:30:44.182Z,62.20
2024-04-30T20:33:15.836Z,62.11
2024-04-30T20:35:47.079Z,62.25
2024-04-30T20:38:18.757Z,62.17
2024-04-30T20:40:50.227Z,62.20
2024-04-30T20:43:21.412Z,62.39
2024-04-30T20:45:52.850Z,62.37
2024-04-30T20:48:24.396Z,62.50
2024-04-30T20:50:55.611Z,62.63
2024-04-30T20:53:26.781Z,62.78
2024-04-30T20:55:57.858Z,63.03
2024-04-30T20:58:28.863Z,63.30
2024-04-30T21:00:59.879Z,63.19
2024-04-30T21:03:31.297Z,63.36
2024-04-30T21:06:02.682Z,63.58
2024-04-30T21:08:33.491Z,63.61
2024-04-30T21:11:04.806Z,63.64
2024-04-30T21:13:36.324Z,63.84
2024-04-30T21:16:08.592Z,64.23
2024-04-30T21:18:39.841Z,64.18
2024-04-30T21:21:11.105Z,64.28
2024-04-30T21:23:43.575Z,64.23
2024-04-30T21:26:14.626Z,64.58
2024-04-30T21:28:45.451Z,64.48
2024-04-30T21:31:19.466Z,64.60
2024-04-30T21:33:50.470Z,64.63
2024-04-30T21:36:21.857Z,64.78
2024-04-30T21:38:52.747Z,64.69
2024-04-30T21:41:23.703Z,64.66
2024-04-30T21:43:54.683Z,64.72
2024-04-30T21:46:25.689Z,64.65
2024-04-30T21:48:56.683Z,64.72
2024-04-30T21:51:28.579Z,64.59
2024-04-30T21:53:59.513Z,64.65
2024-04-30T21:56:31.657Z,64.54
2024-04-30T21:59:02.607Z,64.69
2024-04-30T22:01:33.581Z,64.67
2024-04-30T22:04:04.723Z,64.82
2024-04-30T22:06:36.180Z,64.71
2024-04-30T22:09:07.068Z,65.06
2024-04-30T22:11:38.575Z,65.18
2024-04-30T22:14:09.855Z,65.36
2024-04-30T22:16:40.769Z,65.47
2024-04-30T22:19:11.665Z,65.65
2024-04-30T22:21:42.736Z,65.59
2024-04-30T22:24:13.843Z,65.55
2024-04-30T22:26:44.980Z,65.55
2024-04-30T22:29:19.198Z,65.68
2024-04-30T22:31:51.799Z,65.59
2024-04-30T22:34:22.925Z,65.74
2024-04-30T22:36:56.991Z,65.98
2024-04-30T22:39:28.132Z,65.90
2024-04-30T22:41:59.222Z,65.95
2024-04-30T22:44:30.525Z,66.03
2024-04-30T22:47:02.772Z,65.99
2024-04-30T22:49:33.794Z,66.11
2024-04-30T22:52:05.849Z,66.09
2024-04-30T22:54:36.687Z,66.19
2024-04-30T22:57:08.337Z,66.20
2024-04-30T22:59:39.597Z,66.14
2024-04-30T23:02:10.541Z,66.29
2024-04-30T23:04:41.822Z,66.08
2024-04-30T23:07:13.416Z,66.17
2024-04-30T23:09:44.513Z,66.13
2024-04-30T23:12:15.459Z,66.33
2024-04-30T23:14:46.343Z,66.15
2024-04-30T23:17:17.690Z,66.03
2024-04-30T23:19:49.057Z,66.10
2024-04-30T23:22:23.198Z,66.02
2024-04-30T23:24:54.194Z,66.02
2024-04-30T23:27:25.382Z,65.98
2024-04-30T23:29:56.516Z,66.25
2024-04-30T23:32:27.670Z,66.37
2024-04-30T23:35:00.438Z,66.84
2024-04-30T23:37:31.842Z,66.77
2024-04-30T23:40:03.154Z,66.72
2024-04-30T23:42:38.256Z,67.00
2024-04-30T23:45:10.085Z,66.85
2024-04-30T23:47:41.154Z,66.79
2024-04-30T23:50:12.278Z,66.72
2024-04-30T23:52:45.878Z,66.78
2024-04-30T23:55:17.269Z,66.93
2024-04-30T23:57:48.488Z,67.13
